Time;durP1;ratioP1;P1;durP2;ratioP2;P2;SDS_P1;SDS_P2;PMS_P1;PMS_P2;Temp;Humidity;BMP_temperature;BMP_pressure;BME280_temperature;BME280_humidity;BME280_pressure;Samples;Min_cycle;Max_cycle;Signal;HPM_P1;HPM_P2
2023/04/17 00:01:27;;;;;;;27.20;12.05;;;;;;;10.42;83.73;100417.00;5007715;28;20343;-86
2023/04/17 00:03:56;;;;;;;20.95;11.10;;;;;;;10.47;83.32;100419.28;5012477;28;20076;-86
2023/04/17 00:06:23;;;;;;;27.75;12.20;;;;;;;10.46;83.35;100414.09;5020741;28;20115;-86
2023/04/17 00:08:50;;;;;;;24.60;10.98;;;;;;;10.39;84.33;100419.91;5005580;28;20150;-85
2023/04/17 00:11:17;;;;;;;20.92;10.77;;;;;;;10.35;84.91;100417.59;5014653;28;20049;-85
2023/04/17 00:13:44;;;;;;;24.15;11.32;;;;;;;10.30;85.69;100417.13;4992386;28;20042;-85
2023/04/17 00:16:12;;;;;;;19.38;9.90;;;;;;;10.25;86.12;100409.47;5010158;28;21067;-85
2023/04/17 00:18:39;;;;;;;21.75;9.65;;;;;;;10.26;86.23;100415.66;5002246;28;20506;-85
2023/04/17 00:21:06;;;;;;;21.00;11.57;;;;;;;10.29;85.23;100413.63;5012860;28;20399;-86
2023/04/17 00:23:33;;;;;;;22.02;11.00;;;;;;;10.27;84.28;100414.66;5009983;28;20061;-86
2023/04/17 00:25:59;;;;;;;20.10;11.13;;;;;;;10.26;85.09;100411.19;4998319;28;20052;-85
2023/04/17 00:28:26;;;;;;;21.13;10.70;;;;;;;10.22;85.92;100413.22;5007641;28;20046;-85
2023/04/17 00:30:53;;;;;;;21.50;10.80;;;;;;;10.20;86.64;100412.50;5007986;28;20045;-86
2023/04/17 00:33:20;;;;;;;22.55;11.90;;;;;;;10.17;87.23;100411.88;4993007;28;20052;-84
2023/04/17 00:35:46;;;;;;;23.45;10.90;;;;;;;10.18;87.18;100408.28;4994955;28;20045;-85
2023/04/17 00:38:13;;;;;;;42.97;12.63;;;;;;;10.18;86.91;100405.63;5008553;28;20132;-85
2023/04/17 00:40:41;;;;;;;23.80;10.68;;;;;;;10.17;86.45;100406.56;4961506;28;20045;-85
2023/04/17 00:43:07;;;;;;;25.63;11.50;;;;;;;10.14;86.99;100407.66;4997863;28;20046;-86
2023/04/17 00:45:34;;;;;;;21.00;10.70;;;;;;;10.09;87.21;100403.69;5011408;28;20059;-86
2023/04/17 00:48:03;;;;;;;22.10;10.88;;;;;;;10.11;87.25;100399.94;5012666;28;20085;-86
2023/04/17 00:50:30;;;;;;;21.70;10.85;;;;;;;10.05;87.33;100396.91;4992526;28;20041;-85
2023/04/17 00:52:57;;;;;;;31.48;11.32;;;;;;;10.02;87.47;100407.75;5009764;28;20050;-85
2023/04/17 00:55:25;;;;;;;25.83;12.10;;;;;;;9.98;87.36;100391.25;5000152;28;20060;-86
2023/04/17 00:57:52;;;;;;;22.70;11.57;;;;;;;9.93;87.69;100396.06;5000606;28;20557;-85
2023/04/17 01:00:18;;;;;;;21.88;10.13;;;;;;;9.97;87.28;100394.84;4983465;28;20524;-85
2023/04/17 01:02:46;;;;;;;25.90;10.93;;;;;;;9.98;87.66;100401.84;5006294;28;20061;-86
2023/04/17 01:05:13;;;;;;;25.52;11.50;;;;;;;9.93;87.33;100388.09;5007251;28;20123;-85
2023/04/17 01:07:41;;;;;;;22.88;10.70;;;;;;;9.91;87.50;100392.69;4979999;28;20091;-85
2023/04/17 01:10:09;;;;;;;20.13;10.77;;;;;;;9.92;87.32;100394.34;4997614;28;20050;-86
2023/04/17 01:12:36;;;;;;;23.95;10.65;;;;;;;9.89;87.48;100389.28;4991541;28;20050;-85
2023/04/17 01:15:03;;;;;;;22.15;10.82;;;;;;;9.94;86.91;100387.97;4977464;28;20092;-85
2023/04/17 01:17:30;;;;;;;21.65;10.45;;;;;;;9.94;86.75;100384.47;5011421;28;20041;-85
2023/04/17 01:19:58;;;;;;;18.30;9.65;;;;;;;9.88;87.16;100388.44;5006500;28;20056;-85
2023/04/17 01:22:24;;;;;;;20.98;9.82;;;;;;;9.85;87.41;100391.34;4993254;28;20072;-86
2023/04/17 01:24:55;;;;;;;23.27;10.65;;;;;;;9.86;87.22;100387.72;5013552;28;20077;-85
2023/04/17 01:27:25;;;;;;;25.58;11.98;;;;;;;9.88;87.00;100388.44;5001219;28;20598;-86
2023/04/17 01:29:51;;;;;;;20.77;10.23;;;;;;;9.91;86.40;100393.50;4994264;28;20042;-85
2023/04/17 01:32:19;;;;;;;22.08;10.63;;;;;;;9.93;86.27;100394.25;4981542;28;20123;-85
2023/04/17 01:34:46;;;;;;;23.67;11.75;;;;;;;9.86;86.99;100400.13;5004815;28;20042;-85
2023/04/17 01:37:13;;;;;;;20.13;10.68;;;;;;;9.79;87.41;100391.78;5007203;28;20046;-84
2023/04/17 01:39:39;;;;;;;24.63;11.13;;;;;;;9.72;87.55;100393.25;4994421;28;20049;-86
2023/04/17 01:42:06;;;;;;;23.08;10.40;;;;;;;9.69;87.88;100389.03;4995937;28;20149;-86
2023/04/17 01:44:33;;;;;;;21.50;11.15;;;;;;;9.69;87.54;100394.31;5007617;28;20084;-85
2023/04/17 01:46:59;;;;;;;21.20;10.70;;;;;;;9.65;87.71;100392.03;4994854;28;20053;-86
2023/04/17 01:49:26;;;;;;;19.20;9.73;;;;;;;9.62;87.46;100389.59;5011853;28;20135;-85
2023/04/17 01:51:53;;;;;;;23.42;10.15;;;;;;;9.62;87.65;100393.09;5003910;28;20041;-85
2023/04/17 01:54:21;;;;;;;19.90;9.73;;;;;;;9.63;87.81;100394.78;4988678;28;20450;-86
2023/04/17 01:56:48;;;;;;;28.80;10.52;;;;;;;9.63;87.62;100392.13;5017502;28;20041;-85
2023/04/17 01:59:14;;;;;;;21.33;10.20;;;;;;;9.63;87.86;100397.44;5016746;28;20042;-86
2023/04/17 02:01:41;;;;;;;20.48;10.95;;;;;;;9.56;88.13;100398.84;4986283;28;20049;-85
2023/04/17 02:04:08;;;;;;;21.48;10.48;;;;;;;9.55;88.15;100397.16;5011295;28;20095;-85
2023/04/17 02:06:35;;;;;;;25.00;10.00;;;;;;;9.61;87.98;100398.50;5011361;28;20057;-85
2023/04/17 02:09:02;;;;;;;18.20;10.10;;;;;;;9.57;88.05;100397.91;4995655;28;20042;-85
2023/04/17 02:11:29;;;;;;;19.60;9.63;;;;;;;9.61;88.23;100399.34;4993317;28;20041;-85
2023/04/17 02:13:56;;;;;;;18.42;9.07;;;;;;;9.64;88.34;100392.97;5018397;28;20073;-85
2023/04/17 02:16:23;;;;;;;22.52;9.13;;;;;;;9.62;88.56;100395.75;4999486;28;20458;-85
2023/04/17 02:18:50;;;;;;;20.45;9.63;;;;;;;9.64;88.54;100398.25;5018576;28;20300;-86
2023/04/17 02:21:17;;;;;;;23.77;11.23;;;;;;;9.61;88.42;100393.19;5000433;28;20061;-85
2023/04/17 02:23:44;;;;;;;18.33;9.90;;;;;;;9.59;88.25;100392.47;4998001;28;20089;-85
2023/04/17 02:26:11;;;;;;;21.10;10.00;;;;;;;9.58;88.54;100399.56;5018873;28;20048;-86
2023/04/17 02:28:38;;;;;;;25.45;10.05;;;;;;;9.61;88.68;100391.38;5017547;28;20286;-85
2023/04/17 02:31:07;;;;;;;25.27;10.43;;;;;;;9.60;88.35;100400.31;5003037;28;20313;-85
2023/04/17 02:33:37;;;;;;;20.35;10.15;;;;;;;9.54;88.52;100395.44;4965477;28;20264;-86
2023/04/17 02:36:05;;;;;;;20.17;10.90;;;;;;;9.56;88.63;100402.34;5002608;28;20046;-86
2023/04/17 02:38:40;;;;;;;23.67;10.48;;;;;;;9.50;88.96;100401.97;4973019;28;20050;-84
2023/04/17 02:41:07;;;;;;;27.20;12.05;;;;;;;9.51;88.92;100407.13;4990844;28;20422;-86
2023/04/17 02:43:34;;;;;;;22.52;10.80;;;;;;;9.55;88.51;100405.97;4998342;28;20041;-85
2023/04/17 02:46:01;;;;;;;21.50;10.85;;;;;;;9.50;88.62;100407.28;4994569;28;20050;-85
2023/04/17 02:48:27;;;;;;;21.02;10.40;;;;;;;9.48;88.82;100404.72;4983142;28;20059;-85
2023/04/17 02:50:55;;;;;;;17.98;10.02;;;;;;;9.57;87.99;100405.84;4979869;28;20052;-85
2023/04/17 02:53:22;;;;;;;19.40;10.82;;;;;;;9.52;88.28;100398.25;5004968;28;20069;-86
2023/04/17 02:55:49;;;;;;;22.15;10.30;;;;;;;9.53;88.40;100407.88;5008867;28;20054;-85
2023/04/17 02:58:18;;;;;;;17.45;9.48;;;;;;;9.49;88.94;100403.78;4996252;28;20076;-85
2023/04/17 03:00:45;;;;;;;20.73;9.95;;;;;;;9.47;89.08;100396.91;4993312;28;20081;-85
2023/04/17 03:03:17;;;;;;;18.73;8.38;;;;;;;9.50;88.81;100401.97;5006417;28;20060;-85
2023/04/17 03:05:44;;;;;;;20.55;10.32;;;;;;;9.42;89.10;100391.94;5002341;28;20045;-85
2023/04/17 03:08:11;;;;;;;18.75;8.77;;;;;;;9.47;88.99;100400.38;4997138;28;20125;-85
2023/04/17 03:10:46;;;;;;;18.33;7.63;;;;;;;9.48;88.87;100398.56;5001258;28;20042;-85
2023/04/17 03:13:19;;;;;;;13.90;7.50;;;;;;;9.51;88.50;100403.66;4984858;28;20124;-86
2023/04/17 03:15:46;;;;;;;15.23;8.15;;;;;;;9.52;88.45;100402.69;5004280;28;20076;-85
2023/04/17 03:18:12;;;;;;;16.05;8.32;;;;;;;9.51;88.50;100404.47;4997423;28;20045;-85
2023/04/17 03:20:39;;;;;;;15.68;7.22;;;;;;;9.49;88.70;100398.47;5015240;28;20050;-85
2023/04/17 03:23:06;;;;;;;15.65;7.57;;;;;;;9.46;88.90;100401.34;5017321;28;20569;-85
2023/04/17 03:25:33;;;;;;;14.50;7.88;;;;;;;9.43;89.06;100401.56;4976866;28;20046;-85
2023/04/17 03:28:00;;;;;;;19.30;8.80;;;;;;;9.47;88.66;100408.34;4991485;28;20041;-85
2023/04/17 03:30:30;;;;;;;20.33;8.35;;;;;;;9.43;88.78;100398.06;4998440;28;20046;-86
2023/04/17 03:33:01;;;;;;;15.02;8.02;;;;;;;9.38;88.89;100400.22;4990825;28;20411;-85
2023/04/17 03:35:30;;;;;;;18.85;8.88;;;;;;;9.36;88.64;100400.31;4979821;28;20384;-85
2023/04/17 03:37:57;;;;;;;16.73;8.27;;;;;;;9.40;88.37;100403.63;5006000;28;20233;-85
2023/04/17 03:40:24;;;;;;;16.85;8.13;;;;;;;9.37;88.74;100409.16;4995661;28;20132;-84
2023/04/17 03:42:50;;;;;;;17.17;8.43;;;;;;;9.33;88.93;100409.34;5014192;28;20133;-86
2023/04/17 03:45:17;;;;;;;14.77;7.57;;;;;;;9.33;88.94;100401.41;5005641;28;20060;-86
2023/04/17 03:47:44;;;;;;;18.08;8.43;;;;;;;9.31;89.28;100403.34;4992480;28;20520;-86
2023/04/17 03:50:11;;;;;;;18.23;9.95;;;;;;;9.37;88.92;100398.56;5009753;28;20228;-85
2023/04/17 03:52:45;;;;;;;22.08;10.50;;;;;;;9.42;88.51;100399.06;4964475;28;20156;-85
2023/04/17 03:55:12;;;;;;;23.30;10.68;;;;;;;9.40;89.17;100411.56;5005319;28;20589;-85
2023/04/17 03:57:41;;;;;;;22.73;10.10;;;;;;;9.38;89.03;100402.88;4998972;28;20052;-86
2023/04/17 04:00:09;;;;;;;20.05;10.35;;;;;;;9.38;89.09;100411.66;4990232;28;20046;-85
2023/04/17 04:02:48;;;;;;;21.75;10.80;;;;;;;9.34;89.66;100413.72;5000645;28;20045;-85
2023/04/17 04:05:20;;;;;;;24.95;10.35;;;;;;;9.35;89.67;100415.38;5003790;28;20041;-86
2023/04/17 04:07:47;;;;;;;20.65;10.15;;;;;;;9.33;89.94;100422.59;5005033;28;20056;-86
2023/04/17 04:10:22;;;;;;;23.58;10.32;;;;;;;9.31;90.27;100416.59;4983421;28;20057;-85
2023/04/17 04:12:49;;;;;;;19.52;11.00;;;;;;;9.31;90.23;100421.91;4979823;28;20048;-86
2023/04/17 04:15:16;;;;;;;23.90;11.15;;;;;;;9.32;90.25;100422.72;4995768;28;20151;-85
2023/04/17 04:17:49;;;;;;;24.60;11.73;;;;;;;9.34;89.65;100428.78;4991929;28;20049;-85
2023/04/17 04:20:17;;;;;;;21.88;11.20;;;;;;;9.37;89.62;100420.59;4996068;28;20049;-86
2023/04/17 04:22:44;;;;;;;22.08;11.65;;;;;;;9.29;90.04;100426.47;5018402;28;20676;-86
2023/04/17 04:25:11;;;;;;;22.00;10.98;;;;;;;9.38;89.53;100435.53;5017774;28;20080;-85
2023/04/17 04:27:49;;;;;;;23.58;11.27;;;;;;;9.34;89.86;100426.13;4994622;28;20639;-84
2023/04/17 04:30:25;;;;;;;22.55;11.73;;;;;;;9.34;89.71;100426.97;5000233;28;20057;-85
2023/04/17 04:33:04;;;;;;;24.85;11.77;;;;;;;9.35;89.88;100427.81;4986120;28;20045;-85
2023/04/17 04:35:31;;;;;;;23.60;11.13;;;;;;;9.39;89.46;100429.28;5013589;28;20292;-85
2023/04/17 04:38:01;;;;;;;21.83;11.13;;;;;;;9.34;90.15;100429.63;5010706;28;20088;-84
2023/04/17 04:40:36;;;;;;;20.63;10.90;;;;;;;9.34;89.58;100429.63;4997147;28;20046;-85
2023/04/17 04:43:04;;;;;;;26.10;11.82;;;;;;;9.34;89.82;100426.97;4980799;28;20057;-85
2023/04/17 04:45:39;;;;;;;26.80;11.23;;;;;;;9.34;89.65;100419.00;5015712;28;20053;-85
2023/04/17 04:48:05;;;;;;;23.38;10.38;;;;;;;9.34;89.91;100429.63;4982938;28;22236;-85
2023/04/17 04:50:32;;;;;;;18.58;10.32;;;;;;;9.38;89.76;100429.38;4997760;28;20053;-85
2023/04/17 04:52:59;;;;;;;23.30;11.18;;;;;;;9.40;89.40;100427.47;5024377;28;20045;-85
2023/04/17 04:55:44;;;;;;;23.83;11.95;;;;;;;9.35;89.89;100427.81;4978568;28;20491;-84
2023/04/17 04:58:11;;;;;;;22.90;11.20;;;;;;;9.45;89.41;100439.41;5009733;28;20526;-85
2023/04/17 05:00:38;;;;;;;22.23;10.90;;;;;;;9.44;89.39;100442.16;4996206;28;20512;-85
2023/04/17 05:03:06;;;;;;;23.92;11.52;;;;;;;9.48;88.67;100443.66;5012545;28;20056;-85
2023/04/17 05:05:34;;;;;;;23.15;10.90;;;;;;;9.41;89.49;100445.88;4976315;28;20080;-85
2023/04/17 05:08:02;;;;;;;24.58;11.60;;;;;;;9.40;89.33;100440.72;4998322;28;20451;-85
2023/04/17 05:10:32;;;;;;;26.70;13.40;;;;;;;9.31;89.91;100448.41;5014840;28;20045;-84
2023/04/17 05:13:02;;;;;;;24.08;12.10;;;;;;;9.31;90.38;100456.34;4982245;28;20046;-85
2023/04/17 05:15:30;;;;;;;27.05;12.00;;;;;;;9.34;90.34;100452.63;4981378;28;20136;-85
2023/04/17 05:17:57;;;;;;;26.08;12.85;;;;;;;9.38;90.48;100461.19;4994977;28;20118;-85
2023/04/17 05:20:26;;;;;;;24.05;12.95;;;;;;;9.36;90.88;100463.94;4997190;28;20046;-84
2023/04/17 05:22:56;;;;;;;26.30;12.45;;;;;;;9.38;90.70;100458.53;4997360;28;20061;-85
2023/04/17 05:25:23;;;;;;;30.70;13.20;;;;;;;9.37;90.80;100456.84;4982197;28;20157;-84
2023/04/17 05:27:51;;;;;;;27.15;11.93;;;;;;;9.37;90.58;100457.69;5002882;28;20340;-85
2023/04/17 05:30:18;;;;;;;28.77;12.77;;;;;;;9.29;91.25;100463.56;5009351;28;20060;-85
2023/04/17 05:32:50;;;;;;;29.10;13.25;;;;;;;9.35;90.92;100465.75;5007019;28;20050;-85
2023/04/17 05:35:47;;;;;;;29.17;12.40;;;;;;;9.36;91.37;100463.94;4990800;28;20079;-85
2023/04/17 05:38:14;;;;;;;24.85;11.88;;;;;;;9.38;91.52;100461.19;5013436;28;20536;-84
2023/04/17 05:40:41;;;;;;;25.00;12.55;;;;;;;9.41;91.56;100472.41;4979969;28;20469;-84
2023/04/17 05:43:10;;;;;;;24.33;11.57;;;;;;;9.43;91.69;100469.66;4991230;28;20046;-85
2023/04/17 05:45:40;;;;;;;29.38;13.25;;;;;;;9.48;91.24;100462.19;4995383;28;20600;-84
2023/04/17 05:48:08;;;;;;;28.85;11.80;;;;;;;9.43;91.44;100464.34;5005997;28;20099;-85
2023/04/17 05:50:36;;;;;;;32.08;12.95;;;;;;;9.44;91.59;100458.94;5014769;28;20072;-85
2023/04/17 05:53:03;;;;;;;27.02;13.18;;;;;;;9.46;91.70;100462.31;5006707;28;20174;-85
2023/04/17 05:55:34;;;;;;;33.63;14.48;;;;;;;9.48;91.78;100464.84;5006699;28;20078;-85
2023/04/17 05:58:04;;;;;;;24.63;11.73;;;;;;;9.50;92.14;100468.25;4995620;28;20306;-86
2023/04/17 06:00:48;;;;;;;23.73;12.25;;;;;;;9.50;92.12;100461.13;5001149;28;20045;-85
2023/04/17 06:03:17;;;;;;;28.17;12.95;;;;;;;9.49;92.88;100467.41;4979205;28;20387;-85
2023/04/17 06:05:48;;;;;;;23.52;11.80;;;;;;;9.55;92.29;100458.97;4994686;28;20050;-85
2023/04/17 06:08:16;;;;;;;23.67;12.63;;;;;;;9.55;92.63;100466.94;5005173;28;20050;-84
2023/04/17 06:10:44;;;;;;;28.48;12.57;;;;;;;9.60;92.92;100469.25;5011488;28;20100;-85
2023/04/17 06:13:11;;;;;;;28.33;11.48;;;;;;;9.65;92.81;100474.22;5011813;28;20156;-85
2023/04/17 06:15:45;;;;;;;31.33;12.55;;;;;;;9.70;92.41;100472.06;4991489;28;20050;-85
2023/04/17 06:18:14;;;;;;;29.30;13.00;;;;;;;9.70;92.87;100472.91;4991095;28;20132;-85
2023/04/17 06:20:41;;;;;;;28.27;12.25;;;;;;;9.74;92.90;100476.16;5014697;28;20065;-84
2023/04/17 06:23:08;;;;;;;27.10;11.98;;;;;;;9.75;92.94;100470.75;4978607;28;20042;-85
2023/04/17 06:25:35;;;;;;;24.95;12.40;;;;;;;9.75;92.97;100476.06;4992439;28;20141;-85
2023/04/17 06:28:02;;;;;;;28.52;12.95;;;;;;;9.81;92.64;100474.75;4995636;28;20061;-85
2023/04/17 06:30:29;;;;;;;30.63;12.63;;;;;;;9.84;92.46;100474.50;4987266;28;20054;-85
2023/04/17 06:32:56;;;;;;;27.10;12.30;;;;;;;9.89;91.30;100477.66;4991524;28;20045;-84
2023/04/17 06:35:24;;;;;;;27.40;14.10;;;;;;;9.90;90.35;100481.19;4995140;28;20137;-85
2023/04/17 06:38:00;;;;;;;28.63;14.57;;;;;;;9.97;89.47;100485.03;5011780;28;20046;-85
2023/04/17 06:40:27;;;;;;;30.08;12.90;;;;;;;9.99;89.31;100480.47;5001354;28;20167;-86
2023/04/17 06:42:54;;;;;;;28.10;15.32;;;;;;;10.03;88.97;100478.47;5018986;28;20052;-84
2023/04/17 06:45:26;;;;;;;26.15;13.70;;;;;;;10.04;88.62;100482.78;4990140;28;20054;-85
2023/04/17 06:47:52;;;;;;;29.40;14.00;;;;;;;10.08;88.68;100484.25;4997110;28;20064;-85
2023/04/17 06:50:19;;;;;;;26.77;14.32;;;;;;;10.14;88.33;100489.09;5012475;28;20050;-84
2023/04/17 06:52:46;;;;;;;24.77;13.18;;;;;;;10.14;88.04;100481.13;5011258;28;20564;-86
2023/04/17 06:55:13;;;;;;;25.10;15.15;;;;;;;10.22;87.71;100492.00;4994476;28;20057;-85
2023/04/17 06:57:39;;;;;;;25.23;12.45;;;;;;;10.22;88.01;100484.88;4998543;28;20111;-85
2023/04/17 07:00:07;;;;;;;22.85;12.65;;;;;;;10.28;87.88;100496.88;4993295;28;20053;-85
2023/04/17 07:02:33;;;;;;;23.58;11.95;;;;;;;10.26;87.44;100487.31;4993717;28;20507;-85
2023/04/17 07:05:00;;;;;;;23.40;11.48;;;;;;;10.26;86.35;100495.28;4997886;28;20128;-86
2023/04/17 07:07:29;;;;;;;20.77;10.65;;;;;;;10.30;86.05;100491.44;5009630;28;20125;-85
2023/04/17 07:09:56;;;;;;;23.38;11.70;;;;;;;10.34;86.78;100492.91;5008147;28;20116;-85
2023/04/17 07:12:23;;;;;;;18.88;9.77;;;;;;;10.22;85.06;100492.00;4997855;28;20053;-84
2023/04/17 07:14:50;;;;;;;21.08;9.73;;;;;;;10.30;84.58;100497.59;5009453;28;20100;-86
2023/04/17 07:17:17;;;;;;;18.27;9.25;;;;;;;10.34;84.81;100492.91;5013307;28;20056;-85
2023/04/17 07:19:44;;;;;;;17.33;9.13;;;;;;;10.26;83.26;100500.59;4965278;28;20045;-85
2023/04/17 07:22:10;;;;;;;19.70;9.43;;;;;;;10.40;84.37;100493.25;5000237;28;20045;-85
2023/04/17 07:24:37;;;;;;;18.70;9.40;;;;;;;10.45;83.80;100505.34;5012050;28;20571;-85
2023/04/17 07:27:06;;;;;;;17.73;9.07;;;;;;;10.40;82.94;100508.34;5000078;28;20562;-85
2023/04/17 07:29:32;;;;;;;19.83;9.23;;;;;;;10.39;82.42;100501.38;5014208;28;20139;-85
2023/04/17 07:31:59;;;;;;;24.73;9.05;;;;;;;10.44;82.22;100512.47;5007696;28;20049;-85
2023/04/17 07:34:29;;;;;;;22.15;10.00;;;;;;;10.41;81.89;100502.94;4989057;28;20045;-85
2023/04/17 07:36:56;;;;;;;18.92;9.35;;;;;;;10.40;81.93;100505.69;5012810;28;20052;-84
2023/04/17 07:39:25;;;;;;;18.58;9.55;;;;;;;10.50;82.56;100506.69;4996078;28;20471;-85
2023/04/17 07:41:52;;;;;;;16.92;8.55;;;;;;;10.51;82.32;100507.53;4990334;28;20077;-85
2023/04/17 07:44:19;;;;;;;21.20;8.80;;;;;;;10.57;81.64;100515.03;5010340;28;20050;-85
2023/04/17 07:46:45;;;;;;;23.38;10.57;;;;;;;10.54;82.40;100509.97;5008304;28;20065;-85
2023/04/17 07:49:12;;;;;;;21.23;9.82;;;;;;;10.47;81.60;100508.72;4988476;28;20402;-85
2023/04/17 07:51:40;;;;;;;20.00;8.95;;;;;;;10.58;81.22;100508.72;4989416;28;20122;-85
2023/04/17 07:54:07;;;;;;;19.85;9.52;;;;;;;10.50;81.76;100506.69;5002771;28;20554;-85
2023/04/17 07:56:33;;;;;;;19.65;9.45;;;;;;;10.52;81.68;100507.41;4992094;28;20136;-85
2023/04/17 07:59:01;;;;;;;23.77;8.45;;;;;;;10.59;82.19;100516.59;5010841;28;20045;-85
2023/04/17 08:01:28;;;;;;;23.27;9.43;;;;;;;10.65;81.23;100521.41;4967143;28;20237;-85
2023/04/17 08:03:55;;;;;;;17.95;8.52;;;;;;;10.69;81.55;100518.56;4987870;28;20456;-85
2023/04/17 08:06:22;;;;;;;18.67;8.93;;;;;;;10.70;81.42;100514.91;4998967;28;20065;-85
2023/04/17 08:08:49;;;;;;;18.10;9.20;;;;;;;10.73;81.58;100517.31;4997853;28;20454;-85
2023/04/17 08:11:15;;;;;;;19.58;9.10;;;;;;;10.74;80.52;100517.22;4993327;28;20114;-85
2023/04/17 08:13:43;;;;;;;19.65;9.13;;;;;;;10.74;80.92;100516.38;4979384;28;20128;-85
2023/04/17 08:16:10;;;;;;;16.40;8.10;;;;;;;10.72;79.94;100521.78;4996881;28;20296;-85
2023/04/17 08:18:38;;;;;;;20.38;9.40;;;;;;;10.73;80.04;100531.44;4990173;28;20513;-85
2023/04/17 08:21:05;;;;;;;17.50;8.70;;;;;;;10.73;80.60;100527.94;4999304;28;20116;-85
2023/04/17 08:23:32;;;;;;;16.52;8.15;;;;;;;10.76;80.85;100520.59;4984220;28;20379;-85
2023/04/17 08:25:59;;;;;;;19.98;8.60;;;;;;;10.80;81.00;100531.81;5008739;28;20429;-85
2023/04/17 08:28:26;;;;;;;18.20;8.43;;;;;;;10.84;80.08;100528.81;5005178;28;20057;-85
2023/04/17 08:30:53;;;;;;;20.17;7.78;;;;;;;10.94;79.52;100538.69;5006419;28;20096;-86
2023/04/17 08:33:20;;;;;;;17.98;8.48;;;;;;;10.89;79.56;100536.44;5009188;28;20071;-86
2023/04/17 08:35:46;;;;;;;17.05;8.10;;;;;;;10.86;78.90;100539.31;5006595;28;20040;-84
2023/04/17 08:38:14;;;;;;;17.52;8.45;;;;;;;10.91;78.83;100526.50;5008345;28;20107;-85
2023/04/17 08:40:46;;;;;;;14.90;8.18;;;;;;;10.92;78.47;100538.84;4982129;28;20502;-85
2023/04/17 08:43:15;;;;;;;17.58;8.48;;;;;;;10.89;79.44;100533.78;5005374;28;20045;-85
2023/04/17 08:45:52;;;;;;;23.65;9.32;;;;;;;10.91;77.77;100529.16;4992126;28;20048;-86
2023/04/17 08:48:23;;;;;;;16.33;8.93;;;;;;;10.89;79.02;100532.91;4993604;28;20049;-85
2023/04/17 08:50:51;;;;;;;17.30;8.10;;;;;;;11.02;77.06;100528.34;5004353;28;20077;-85
2023/04/17 08:53:18;;;;;;;14.85;7.85;;;;;;;10.99;77.16;100544.50;4999551;28;20132;-85
2023/04/17 08:55:46;;;;;;;17.30;7.70;;;;;;;10.96;77.11;100547.41;4993380;28;20050;-85
2023/04/17 08:58:13;;;;;;;15.35;7.80;;;;;;;10.87;75.52;100546.31;4997107;28;20046;-85
2023/04/17 09:00:42;;;;;;;15.27;7.65;;;;;;;10.90;76.43;100538.09;5009250;28;20128;-85
2023/04/17 09:03:11;;;;;;;16.88;8.65;;;;;;;10.96;76.35;100534.94;4997484;28;20057;-84
2023/04/17 09:05:41;;;;;;;14.82;7.15;;;;;;;11.06;76.33;100533.25;5002871;28;20053;-85
2023/04/17 09:08:08;;;;;;;15.20;7.32;;;;;;;11.08;76.76;100536.66;5007600;28;20116;-85
2023/04/17 09:10:39;;;;;;;12.88;7.38;;;;;;;11.14;77.15;100537.13;5011411;28;20049;-85
2023/04/17 09:13:13;;;;;;;14.30;7.03;;;;;;;11.08;76.35;100544.63;5016499;28;20075;-85
2023/04/17 09:15:41;;;;;;;16.25;7.10;;;;;;;11.17;75.33;100542.19;4977707;28;20058;-85
2023/04/17 09:18:24;;;;;;;14.13;7.28;;;;;;;11.05;74.29;100546.69;4997401;28;20066;-85
2023/04/17 09:20:51;;;;;;;15.48;7.40;;;;;;;11.05;75.09;100541.38;5005417;28;20127;-85
2023/04/17 09:23:19;;;;;;;16.73;7.32;;;;;;;11.04;75.74;100540.53;5007026;28;20065;-85
2023/04/17 09:25:46;;;;;;;21.55;8.10;;;;;;;11.13;75.43;100544.25;4981103;28;20247;-85
2023/04/17 09:28:14;;;;;;;18.42;7.80;;;;;;;11.13;75.94;100551.41;5003024;28;20070;-85
2023/04/17 09:30:42;;;;;;;15.98;7.93;;;;;;;11.13;75.08;100546.91;5013675;28;20506;-84
2023/04/17 09:33:11;;;;;;;14.10;6.47;;;;;;;11.13;74.51;100536.28;5007046;28;20050;-85
2023/04/17 09:35:38;;;;;;;13.30;7.22;;;;;;;11.13;73.75;100538.94;4997275;28;20478;-85
2023/04/17 09:38:06;;;;;;;14.82;6.55;;;;;;;11.15;73.96;100539.69;5007391;28;20065;-85
2023/04/17 09:40:40;;;;;;;16.38;7.20;;;;;;;11.13;74.10;100548.75;4998113;28;20041;-85
2023/04/17 09:43:08;;;;;;;15.85;7.18;;;;;;;11.14;75.32;100547.75;5008440;28;20566;-85
2023/04/17 09:45:40;;;;;;;16.88;7.68;;;;;;;11.08;75.29;100552.59;5006658;28;20481;-86
2023/04/17 09:48:09;;;;;;;17.63;7.30;;;;;;;11.10;74.69;100549.00;5005366;28;20132;-85
2023/04/17 09:50:37;;;;;;;14.02;6.78;;;;;;;11.04;73.47;100545.84;5000096;28;20064;-86
2023/04/17 09:53:05;;;;;;;14.75;7.38;;;;;;;11.07;74.56;100542.09;4991935;28;20276;-85
2023/04/17 09:55:35;;;;;;;20.33;8.43;;;;;;;11.12;75.04;100547.03;4999192;28;20058;-85
2023/04/17 09:58:04;;;;;;;13.80;6.93;;;;;;;11.15;74.30;100549.47;5009123;28;20191;-85
2023/04/17 10:00:31;;;;;;;13.27;6.68;;;;;;;11.20;75.45;100545.47;5007399;28;20593;-85
2023/04/17 10:02:58;;;;;;;12.35;6.78;;;;;;;11.26;73.90;100541.47;4993170;28;20518;-85
2023/04/17 10:05:27;;;;;;;13.68;6.70;;;;;;;11.31;74.42;100541.94;4986050;28;20477;-85
2023/04/17 10:07:55;;;;;;;12.60;6.40;;;;;;;11.34;74.08;100543.50;5007692;28;20533;-85
2023/04/17 10:10:29;;;;;;;13.75;6.82;;;;;;;11.30;73.83;100537.59;4999056;28;20049;-85
2023/04/17 10:12:58;;;;;;;14.35;7.50;;;;;;;11.34;72.72;100535.53;5015763;28;20061;-85
2023/04/17 10:15:25;;;;;;;14.90;6.97;;;;;;;11.45;73.48;100544.34;4981538;28;20129;-85
2023/04/17 10:17:55;;;;;;;12.13;5.95;;;;;;;11.45;73.33;100530.22;4979367;28;20056;-85
2023/04/17 10:20:22;;;;;;;11.70;5.78;;;;;;;11.46;73.51;100529.22;4979555;28;20076;-85
2023/04/17 10:22:53;;;;;;;12.82;6.32;;;;;;;11.38;72.55;100537.81;5017062;28;20060;-85
2023/04/17 10:25:20;;;;;;;12.65;6.82;;;;;;;11.42;73.00;100526.00;5010298;28;20530;-86
2023/04/17 10:27:58;;;;;;;9.75;5.53;;;;;;;11.40;71.41;100530.56;4994214;28;20056;-85
2023/04/17 10:30:53;;;;;;;11.85;5.63;;;;;;;11.42;71.80;100522.47;5013698;28;20050;-85
2023/04/17 10:33:23;;;;;;;12.07;6.50;;;;;;;11.48;73.07;100519.31;5006882;28;20404;-85
2023/04/17 10:35:51;;;;;;;12.38;5.40;;;;;;;11.54;72.11;100523.28;5007925;28;20056;-85
2023/04/17 10:38:32;;;;;;;13.18;5.90;;;;;;;11.45;71.51;100517.75;5011354;28;20550;-85
2023/04/17 10:41:03;;;;;;;15.45;6.78;;;;;;;11.48;71.99;100514.00;5007391;28;20139;-85
2023/04/17 10:43:30;;;;;;;12.90;5.30;;;;;;;11.47;72.79;100521.13;5012970;28;20516;-85
2023/04/17 10:46:11;;;;;;;13.27;6.07;;;;;;;11.44;70.43;100520.53;4998902;28;20041;-85
2023/04/17 10:48:43;;;;;;;17.30;6.32;;;;;;;11.50;72.00;100517.38;5010798;28;20072;-85
2023/04/17 10:51:22;;;;;;;11.80;6.00;;;;;;;11.49;71.62;100518.34;5005861;28;20045;-85
2023/04/17 10:53:51;;;;;;;10.52;5.75;;;;;;;11.56;72.73;100510.72;5010366;28;20054;-85
2023/04/17 10:56:23;;;;;;;13.23;6.85;;;;;;;11.52;72.52;100526.94;4998391;28;20220;-85
2023/04/17 10:58:57;;;;;;;18.90;8.38;;;;;;;11.41;70.88;100518.13;5008371;28;20049;-85
2023/04/17 11:01:26;;;;;;;13.90;7.65;;;;;;;11.43;71.35;100514.38;4985735;28;20545;-86
2023/04/17 11:03:55;;;;;;;14.95;6.55;;;;;;;11.40;71.69;100524.41;4979398;28;20511;-85
2023/04/17 11:06:26;;;;;;;12.65;6.78;;;;;;;11.42;72.22;100518.00;4986440;28;20060;-85
2023/04/17 11:08:55;;;;;;;13.82;6.75;;;;;;;11.48;72.44;100511.34;5006722;28;20112;-85
2023/04/17 11:11:23;;;;;;;11.48;6.68;;;;;;;11.48;72.28;100506.84;5012671;28;20136;-85
2023/04/17 11:14:15;;;;;;;12.55;6.95;;;;;;;11.51;71.62;100517.25;4998174;28;20620;-85
2023/04/17 11:16:43;;;;;;;13.45;6.78;;;;;;;11.55;71.96;100507.22;5008875;28;20560;-85
2023/04/17 11:19:15;;;;;;;11.43;6.30;;;;;;;11.64;72.37;100508.25;5000619;28;20045;-85
2023/04/17 11:21:43;;;;;;;13.40;5.90;;;;;;;11.67;71.40;100506.19;5025627;28;20046;-85
2023/04/17 11:24:09;;;;;;;12.18;6.18;;;;;;;11.71;71.35;100498.81;5007229;28;20042;-85